createdAt,value
2016-04-21T00:00:00.677Z,9.59
2016-04-21T00:01:00.773Z,9.59
2016-04-21T00:02:00.683Z,9.64
2016-04-21T00:03:00.670Z,9.49
2016-04-21T00:04:00.672Z,9.52
2016-04-21T00:05:00.675Z,9.44
2016-04-21T00:06:00.677Z,9.42
2016-04-21T00:07:00.664Z,9.42
2016-04-21T00:08:00.730Z,9.37
2016-04-21T00:09:00.686Z,9.36
2016-04-21T00:10:00.673Z,9.34
2016-04-21T00:11:00.675Z,9.33
2016-04-21T00:12:00.678Z,9.37
2016-04-21T00:13:00.681Z,9.37
2016-04-21T00:14:00.699Z,9.31
2016-04-21T00:15:00.671Z,9.31
2016-04-21T00:16:00.688Z,9.15
2016-04-21T00:17:00.535Z,9.12
2016-04-21T00:18:00.694Z,9.11
2016-04-21T00:19:00.697Z,9.13
2016-04-21T00:20:05.513Z,9.18
2016-04-21T00:21:00.702Z,9.15
2016-04-21T00:22:00.674Z,9.15
2016-04-21T00:23:00.536Z,9.24
2016-04-21T00:24:00.695Z,9.26
2016-04-21T00:25:00.697Z,9.31
2016-04-21T00:26:00.684Z,9.3
2016-04-21T00:27:00.687Z,9.31
2016-04-21T00:28:00.690Z,9.27
2016-04-21T00:29:00.678Z,9.3
2016-04-21T00:30:00.680Z,9.33
2016-04-21T00:31:00.683Z,9.29
2016-04-21T00:32:00.685Z,9.36
2016-04-21T00:33:00.688Z,9.3
2016-04-21T00:34:00.722Z,9.3
2016-04-21T00:35:00.693Z,9.3
2016-04-21T00:36:00.681Z,9.21
2016-04-21T00:37:00.683Z,9.34
2016-04-21T00:38:00.701Z,9.29
2016-04-21T00:39:00.705Z,9.29
2016-04-21T00:40:00.691Z,9.27
2016-04-21T00:41:00.677Z,9.29
2016-04-21T00:42:00.680Z,9.34
2016-04-21T00:43:00.699Z,9.34
2016-04-21T00:44:00.686Z,9.29
2016-04-21T00:45:00.689Z,9.31
2016-04-21T00:46:00.676Z,9.27
2016-04-21T00:47:00.679Z,9.24
2016-04-21T00:48:00.681Z,9.29
2016-04-21T00:49:00.684Z,9.26
2016-04-21T00:50:00.687Z,9.22
2016-04-21T00:51:00.689Z,9.26
2016-04-21T00:52:00.693Z,9.13
2016-04-21T00:53:00.523Z,9.16
2016-04-21T00:54:00.682Z,9.13
2016-04-21T00:55:00.685Z,9.16
2016-04-21T00:56:00.703Z,9.05
2016-04-21T00:57:00.690Z,8.95
2016-04-21T00:58:00.692Z,8.81
2016-04-21T00:59:00.679Z,8.96
2016-04-21T01:00:00.682Z,8.93
2016-04-21T01:01:00.685Z,8.87
2016-04-21T01:02:00.687Z,8.9
2016-04-21T01:03:00.690Z,8.82
2016-04-21T01:04:00.708Z,8.71
2016-04-21T01:05:00.756Z,8.72
2016-04-21T01:06:00.790Z,8.74
2016-04-21T01:07:00.837Z,8.72
2016-04-21T01:08:00.760Z,8.63
2016-04-21T01:09:00.923Z,8.52
2016-04-21T01:10:00.927Z,8.49
2016-04-21T01:11:00.946Z,8.44
2016-04-21T01:12:00.981Z,8.34
2016-04-21T01:13:00.984Z,8.42
2016-04-21T01:14:00.999Z,8.41
2016-04-21T01:15:01.008Z,8.35
2016-04-21T01:16:01.016Z,8.35
2016-04-21T01:17:01.025Z,8.36
2016-04-21T01:18:01.018Z,8.35
2016-04-21T01:19:01.026Z,8.2
2016-04-21T01:20:01.031Z,8.16
2016-04-21T01:21:01.035Z,8.01
2016-04-21T01:22:01.060Z,7.9
2016-04-21T01:23:00.908Z,7.85
2016-04-21T01:24:01.038Z,7.66
2016-04-21T01:25:01.026Z,7.67
2016-04-21T01:26:01.029Z,7.56
2016-04-21T01:27:01.049Z,7.58
2016-04-21T01:28:01.036Z,7.46
2016-04-21T01:29:01.039Z,7.46
2016-04-21T01:30:01.042Z,7.37
2016-04-21T01:31:01.030Z,7.33
2016-04-21T01:32:01.033Z,7.15
2016-04-21T01:33:01.051Z,7.08
2016-04-21T01:34:00.882Z,7.01
2016-04-21T01:35:01.042Z,6.93
2016-04-21T01:36:01.045Z,6.96
2016-04-21T01:37:01.062Z,6.92
2016-04-21T01:38:01.051Z,6.83
2016-04-21T01:39:01.053Z,6.75
2016-04-21T01:40:01.040Z,6.7
2016-04-21T01:41:01.042Z,6.64
2016-04-21T01:42:01.045Z,6.64
2016-04-21T01:43:01.047Z,6.6
2016-04-21T01:44:01.034Z,6.54
2016-04-21T01:45:01.037Z,6.52
2016-04-21T01:46:01.040Z,6.52
2016-04-21T01:47:01.043Z,6.36
2016-04-21T01:48:01.045Z,6.38
2016-04-21T01:49:01.048Z,6.36
2016-04-21T01:50:01.050Z,6.41
2016-04-21T01:51:01.038Z,6.36
2016-04-21T01:52:01.056Z,6.32
2016-04-21T01:53:01.044Z,6.26
2016-04-21T01:54:01.031Z,6.13
2016-04-21T01:55:01.049Z,6.16
2016-04-21T01:56:01.036Z,6.12
2016-04-21T01:57:01.038Z,6.05
2016-04-21T01:58:01.041Z,6.01
2016-04-21T01:59:01.043Z,5.88
2016-04-21T02:00:01.030Z,5.91
2016-04-21T02:01:01.033Z,5.94
2016-04-21T02:02:01.052Z,5.94
2016-04-21T02:03:01.055Z,5.92
2016-04-21T02:04:01.057Z,5.79
2016-04-21T02:05:01.076Z,5.69
2016-04-21T02:06:01.093Z,5.69
2016-04-21T02:07:01.082Z,5.67
2016-04-21T02:08:01.099Z,5.55
2016-04-21T02:09:01.084Z,5.61
2016-04-21T02:10:00.946Z,5.52
2016-04-21T02:11:01.042Z,5.49
2016-04-21T02:12:01.029Z,5.58
2016-04-21T02:13:01.031Z,5.51
2016-04-21T02:14:01.035Z,5.37
2016-04-21T02:15:01.038Z,5.41
2016-04-21T02:16:01.040Z,5.4
2016-04-21T02:17:01.027Z,5.41
2016-04-21T02:18:01.030Z,5.37
2016-04-21T02:19:01.032Z,5.31
2016-04-21T02:20:01.019Z,5.31
2016-04-21T02:21:01.039Z,5.29
2016-04-21T02:22:01.041Z,5.29
2016-04-21T02:23:01.027Z,5.47
2016-04-21T02:24:01.030Z,5.37
2016-04-21T02:25:01.050Z,5.33
2016-04-21T02:26:01.036Z,5.36
2016-04-21T02:27:01.039Z,5.33
2016-04-21T02:28:01.041Z,5.29
2016-04-21T02:29:01.044Z,5.25
2016-04-21T02:30:01.031Z,5.2
2016-04-21T02:31:01.033Z,5.19
2016-04-21T02:32:01.021Z,5.1
2016-04-21T02:33:01.023Z,5.12
2016-04-21T02:34:01.026Z,5.02
2016-04-21T02:35:01.029Z,5.04
2016-04-21T02:36:01.031Z,5.02
2016-04-21T02:37:01.035Z,4.92
2016-04-21T02:38:01.037Z,4.97
2016-04-21T02:39:01.040Z,5.01
2016-04-21T02:40:01.027Z,4.9
2016-04-21T02:41:01.045Z,4.79
2016-04-21T02:42:01.063Z,4.76
2016-04-21T02:43:01.034Z,4.82
2016-04-21T02:44:01.037Z,4.79
2016-04-21T02:45:01.040Z,4.82
2016-04-21T02:46:01.026Z,4.75
2016-04-21T02:47:01.015Z,4.78
2016-04-21T02:48:01.017Z,4.68
2016-04-21T02:49:01.035Z,4.71
2016-04-21T02:50:01.022Z,4.78
2016-04-21T02:51:01.025Z,4.75
2016-04-21T02:52:01.028Z,4.75
2016-04-21T02:53:00.874Z,4.7
2016-04-21T02:54:01.033Z,4.78
2016-04-21T02:55:01.036Z,4.74
2016-04-21T02:56:01.022Z,4.75
2016-04-21T02:57:01.025Z,4.7
2016-04-21T02:58:01.027Z,4.82
2016-04-21T02:59:01.016Z,4.68
2016-04-21T03:00:01.018Z,4.68
2016-04-21T03:01:01.005Z,4.66
2016-04-21T03:02:01.055Z,4.66
2016-04-21T03:03:01.010Z,4.58
2016-04-21T03:04:01.013Z,4.61
2016-04-21T03:05:01.016Z,4.46
2016-04-21T03:06:01.018Z,4.48
2016-04-21T03:07:01.021Z,4.39
2016-04-21T03:08:01.023Z,4.31
2016-04-21T03:09:01.010Z,4.36
2016-04-21T03:10:01.014Z,4.27
2016-04-21T03:11:01.016Z,4.3
2016-04-21T03:12:01.004Z,4.21
2016-04-21T03:13:01.006Z,4.21
2016-04-21T03:14:01.024Z,4.13
2016-04-21T03:15:01.012Z,4.14
2016-04-21T03:16:01.014Z,4.07
2016-04-21T03:17:01.017Z,4.06
2016-04-21T03:18:01.003Z,4.07
2016-04-21T03:19:01.006Z,3.96
2016-04-21T03:20:01.009Z,4.14
2016-04-21T03:21:01.011Z,4.09
2016-04-21T03:22:01.008Z,4.07
2016-04-21T03:23:00.995Z,4.04
2016-04-21T03:24:00.998Z,4.03
2016-04-21T03:25:01.000Z,4.06
2016-04-21T03:26:01.018Z,3.96
2016-04-21T03:27:01.006Z,4.06
2016-04-21T03:28:01.008Z,3.95
2016-04-21T03:29:01.012Z,3.88
2016-04-21T03:30:00.998Z,3.86
2016-04-21T03:31:01.000Z,3.82
2016-04-21T03:32:01.003Z,3.76
2016-04-21T03:33:00.990Z,3.76
2016-04-21T03:34:01.009Z,3.76
2016-04-21T03:35:00.995Z,3.68
2016-04-21T03:36:00.998Z,3.67
2016-04-21T03:37:01.001Z,3.67
2016-04-21T03:38:00.989Z,3.64
2016-04-21T03:39:00.991Z,3.71
2016-04-21T03:40:00.994Z,3.67
2016-04-21T03:41:00.980Z,3.68
2016-04-21T03:42:00.983Z,3.68
2016-04-21T03:43:00.986Z,3.58
2016-04-21T03:44:00.989Z,3.58
2016-04-21T03:45:00.991Z,3.52
2016-04-21T03:46:00.994Z,3.59
2016-04-21T03:47:00.996Z,3.55
2016-04-21T03:48:00.969Z,3.55
2016-04-21T03:49:00.986Z,3.5
2016-04-21T03:50:00.974Z,3.49
2016-04-21T03:51:00.976Z,3.59
2016-04-21T03:52:00.994Z,3.45
2016-04-21T03:53:00.996Z,3.53
2016-04-21T03:54:00.969Z,3.43
2016-04-21T03:55:01.002Z,3.55
2016-04-21T03:56:00.974Z,3.55
2016-04-21T03:57:00.977Z,3.48
2016-04-21T03:58:00.964Z,3.55
2016-04-21T03:59:00.967Z,3.43
2016-04-21T04:00:00.969Z,3.45
2016-04-21T04:01:00.972Z,3.36
2016-04-21T04:02:00.975Z,3.36
2016-04-21T04:03:00.962Z,3.27
2016-04-21T04:04:00.964Z,3.33
2016-04-21T04:05:00.967Z,3.3
2016-04-21T04:06:00.954Z,3.3
2016-04-21T04:07:00.956Z,3.36
2016-04-21T04:08:00.975Z,3.36
2016-04-21T04:09:00.946Z,3.34
2016-04-21T04:10:00.965Z,3.33
2016-04-21T04:11:00.952Z,3.37
2016-04-21T04:12:00.955Z,3.36
2016-04-21T04:13:00.800Z,3.43
2016-04-21T04:14:00.960Z,3.37
2016-04-21T04:15:00.946Z,3.31
2016-04-21T04:16:00.965Z,3.31
2016-04-21T04:17:00.968Z,3.26
2016-04-21T04:18:00.971Z,3.36
2016-04-21T04:19:00.958Z,3.34
2016-04-21T04:20:00.960Z,3.26
2016-04-21T04:21:00.947Z,3.21
2016-04-21T04:22:00.966Z,3.19
2016-04-21T04:23:00.969Z,3.22
2016-04-21T04:24:00.955Z,3.22
2016-04-21T04:25:00.943Z,3.34
2016-04-21T04:26:00.960Z,3.3
2016-04-21T04:27:00.948Z,3.26
2016-04-21T04:28:00.935Z,3.26
2016-04-21T04:29:00.953Z,3.27
2016-04-21T04:30:00.957Z,3.27
2016-04-21T04:31:00.943Z,3.31
2016-04-21T04:32:00.946Z,3.37
2016-04-21T04:33:00.948Z,3.33
2016-04-21T04:34:00.951Z,3.34
2016-04-21T04:35:00.953Z,3.37
2016-04-21T04:36:00.957Z,3.49
2016-04-21T04:37:00.944Z,3.55
2016-04-21T04:38:00.931Z,3.61
2016-04-21T04:39:00.934Z,3.81
2016-04-21T04:40:00.936Z,4.02
2016-04-21T04:41:00.939Z,4.32
2016-04-21T04:42:00.941Z,4.64
2016-04-21T04:43:00.928Z,4.95
2016-04-21T04:44:00.931Z,5.34
2016-04-21T04:45:00.950Z,5.65
2016-04-21T04:46:00.936Z,5.99
2016-04-21T04:47:00.939Z,6.34
2016-04-21T04:48:00.926Z,6.72
2016-04-21T04:49:00.930Z,7.13
2016-04-21T04:50:00.932Z,7.46
2016-04-21T04:51:00.966Z,7.77
2016-04-21T04:52:00.937Z,8.08
2016-04-21T04:53:00.924Z,8.32
2016-04-21T04:54:00.927Z,8.68
2016-04-21T04:55:00.930Z,8.97
2016-04-21T04:56:00.949Z,9.29
2016-04-21T04:57:00.935Z,9.64
2016-04-21T04:58:00.922Z,10.03
2016-04-21T04:59:00.940Z,10.43
2016-04-21T05:00:00.927Z,10.71
2016-04-21T05:01:00.929Z,11.08
2016-04-21T05:02:00.918Z,11.27
2016-04-21T05:03:00.920Z,11.48
2016-04-21T05:04:00.938Z,11.6
2016-04-21T05:05:00.925Z,11.83
2016-04-21T05:06:00.912Z,12.14
2016-04-21T05:07:00.930Z,12.26
2016-04-21T05:08:00.933Z,12.44
2016-04-21T05:09:00.921Z,12.73
2016-04-21T05:10:00.939Z,12.87
2016-04-21T05:11:00.926Z,13.19
2016-04-21T05:12:00.928Z,13.4
2016-04-21T05:13:00.931Z,13.65
2016-04-21T05:14:00.933Z,13.78
2016-04-21T05:15:00.936Z,14.04
2016-04-21T05:16:00.939Z,14.41
2016-04-21T05:17:00.927Z,14.62
2016-04-21T05:18:00.929Z,15.08
2016-04-21T05:19:00.932Z,15.51
2016-04-21T05:20:00.966Z,15.73
2016-04-21T05:21:00.938Z,16.1
2016-04-21T05:22:00.940Z,16.43
2016-04-21T05:23:00.927Z,16.59
2016-04-21T05:24:00.945Z,16.77
2016-04-21T05:25:00.948Z,16.95
2016-04-21T05:26:00.951Z,17.14
2016-04-21T05:27:00.968Z,17.37
2016-04-21T05:28:00.940Z,17.53
2016-04-21T05:29:00.959Z,17.79
2016-04-21T05:30:00.946Z,17.9
2016-04-21T05:31:00.965Z,18.12
2016-04-21T05:32:00.951Z,18.36
2016-04-21T05:33:01.002Z,18.53
2016-04-21T05:34:00.993Z,18.92
2016-04-21T05:35:01.027Z,19.44
2016-04-21T05:36:00.967Z,19.57
2016-04-21T05:37:00.991Z,19.81
2016-04-21T05:38:00.978Z,20.03
2016-04-21T05:39:00.856Z,20.32
2016-04-21T05:40:00.968Z,20.75
2016-04-21T05:41:00.987Z,21.11
2016-04-21T05:42:00.973Z,21.56
2016-04-21T05:43:00.991Z,21.75
2016-04-21T05:44:00.979Z,22.06
2016-04-21T05:45:00.981Z,22.18
2016-04-21T05:46:00.999Z,22.26
2016-04-21T05:47:01.003Z,22.53
2016-04-21T05:48:01.005Z,22.59
2016-04-21T05:49:01.008Z,22.58
2016-04-21T05:50:00.995Z,22.63
2016-04-21T05:51:00.856Z,22.78
2016-04-21T05:52:00.859Z,22.76
2016-04-21T05:53:01.002Z,22.83
2016-04-21T05:54:00.865Z,22.98
2016-04-21T05:55:01.024Z,23.18
2016-04-21T05:56:01.010Z,23.52
2016-04-21T05:57:00.873Z,23.92
2016-04-21T05:58:01.047Z,24.4
2016-04-21T05:59:01.034Z,24.48
2016-04-21T06:00:01.038Z,24.63
2016-04-21T06:01:01.040Z,24.86
2016-04-21T06:02:01.043Z,25.07
2016-04-21T06:03:01.046Z,25.21
2016-04-21T06:04:01.063Z,25.18
2016-04-21T06:05:01.051Z,25.29
2016-04-21T06:06:01.069Z,25.36
2016-04-21T06:07:01.071Z,25.48
2016-04-21T06:08:01.074Z,25.88
2016-04-21T06:09:01.108Z,26.11
2016-04-21T06:10:01.079Z,26.37
2016-04-21T06:11:01.082Z,26.63
2016-04-21T06:12:01.085Z,26.82
2016-04-21T06:13:01.103Z,27.03
2016-04-21T06:14:01.106Z,27.37
2016-04-21T06:15:01.109Z,27.78
2016-04-21T06:16:01.112Z,28.16
2016-04-21T06:17:01.114Z,28.82
2016-04-21T06:18:01.117Z,29.18
2016-04-21T06:19:01.120Z,29.1
2016-04-21T06:20:01.122Z,29.13
2016-04-21T06:21:01.141Z,29.27
2016-04-21T06:22:01.143Z,29.58
2016-04-21T06:23:01.146Z,29.86
2016-04-21T06:24:01.227Z,30.21
2016-04-21T06:25:01.166Z,30.36
2016-04-21T06:26:01.154Z,30.65
2016-04-21T06:27:01.172Z,30.93
2016-04-21T06:28:01.191Z,31.25
2016-04-21T06:29:01.193Z,31.42
2016-04-21T06:30:01.180Z,31.52
2016-04-21T06:31:01.199Z,31.64
2016-04-21T06:32:01.202Z,31.63
2016-04-21T06:33:01.205Z,31.82
2016-04-21T06:34:01.207Z,31.97
2016-04-21T06:35:01.225Z,32.12
2016-04-21T06:36:01.227Z,32.09
2016-04-21T06:37:01.246Z,32.23
2016-04-21T06:38:01.233Z,32.22
2016-04-21T06:39:01.143Z,32.22
2016-04-21T06:40:01.254Z,32.24
2016-04-21T06:41:01.257Z,32.35
2016-04-21T06:42:01.260Z,32.42
2016-04-21T06:43:01.262Z,32.46
2016-04-21T06:44:01.280Z,32.46
2016-04-21T06:45:01.284Z,32.41
2016-04-21T06:46:01.301Z,32.42
2016-04-21T06:47:01.304Z,32.61
2016-04-21T06:48:01.323Z,32.95
2016-04-21T06:49:01.310Z,33.42
2016-04-21T06:50:01.328Z,33.76
2016-04-21T06:51:01.331Z,34.02
2016-04-21T06:52:01.334Z,34.03
2016-04-21T06:53:01.336Z,34.09
2016-04-21T06:54:01.355Z,34.18
2016-04-21T06:55:01.358Z,34.19
2016-04-21T06:56:01.360Z,34.19
2016-04-21T06:57:01.363Z,34.21
2016-04-21T06:58:01.381Z,34.02
2016-04-21T06:59:01.383Z,33.65
2016-04-21T07:00:01.402Z,33.1
2016-04-21T07:01:01.405Z,32.54
2016-04-21T07:02:01.422Z,32.02
2016-04-21T07:03:01.425Z,31.6
2016-04-21T07:04:01.428Z,31.47
2016-04-21T07:05:01.430Z,31.3
2016-04-21T07:06:01.433Z,31.14
2016-04-21T07:07:01.452Z,30.86
2016-04-21T07:08:01.438Z,30.86
2016-04-21T07:09:01.379Z,30.78
2016-04-21T07:10:01.476Z,30.8
2016-04-21T07:11:01.478Z,30.52
2016-04-21T07:12:01.481Z,29.94
2016-04-21T07:13:01.484Z,29.37
2016-04-21T07:14:01.518Z,29.16
2016-04-21T07:15:01.504Z,28.87
2016-04-21T07:16:01.523Z,28.41
2016-04-21T07:17:01.525Z,28.08
2016-04-21T07:18:01.528Z,27.85
2016-04-21T07:19:01.531Z,27.61
2016-04-21T07:20:01.533Z,27.3
2016-04-21T07:21:01.537Z,26.92
2016-04-21T07:22:01.555Z,26.79
2016-04-21T07:23:01.572Z,26.79
2016-04-21T07:24:01.420Z,26.91
2016-04-21T07:25:01.579Z,27.04
2016-04-21T07:26:01.581Z,27.15
2016-04-21T07:27:01.600Z,27.16
2016-04-21T07:28:01.603Z,27.3
2016-04-21T07:29:01.605Z,27.55
2016-04-21T07:30:01.608Z,27.6
2016-04-21T07:31:01.625Z,27.6
2016-04-21T07:32:01.644Z,27.44
2016-04-21T07:33:01.647Z,27.44
2016-04-21T07:34:01.649Z,27.37
2016-04-21T07:35:01.652Z,27.35
2016-04-21T07:36:01.654Z,27.5
2016-04-21T07:37:01.673Z,27.82
2016-04-21T07:38:01.708Z,28.27
2016-04-21T07:39:01.694Z,28.62
2016-04-21T07:40:01.681Z,29.21
2016-04-21T07:41:01.700Z,29.57
2016-04-21T07:42:01.702Z,29.81
2016-04-21T07:43:01.721Z,29.27
2016-04-21T07:44:01.708Z,28.93
2016-04-21T07:45:01.726Z,29.06
2016-04-21T07:46:01.729Z,29.2
2016-04-21T07:47:01.747Z,29.87
2016-04-21T07:48:01.750Z,30.49
2016-04-21T07:49:01.753Z,31.35
2016-04-21T07:50:01.770Z,31.86
2016-04-21T07:51:01.773Z,32.17
2016-04-21T07:52:01.792Z,32.61
2016-04-21T07:53:01.779Z,32.72
2016-04-21T07:54:01.828Z,32.93
2016-04-21T07:55:01.800Z,32.98
2016-04-21T07:56:01.803Z,32.86
2016-04-21T07:57:01.836Z,32.51
2016-04-21T07:58:01.823Z,32.45
2016-04-21T07:59:01.842Z,32.46
2016-04-21T08:00:01.844Z,32.71
2016-04-21T08:01:01.831Z,32.75
2016-04-21T08:02:01.849Z,32.82
2016-04-21T08:03:01.853Z,33.1
2016-04-21T08:04:01.871Z,33.44
2016-04-21T08:05:01.873Z,33.88
2016-04-21T08:06:01.892Z,34.56
2016-04-21T08:07:01.894Z,35.07
2016-04-21T08:08:01.897Z,35.31
2016-04-21T08:09:01.916Z,35.23
2016-04-21T08:10:01.918Z,34.97
2016-04-21T08:11:01.921Z,34.44
2016-04-21T08:12:01.923Z,34.41
2016-04-21T08:13:01.942Z,34.29
2016-04-21T08:14:01.945Z,34.18
2016-04-21T08:15:01.948Z,34.13
2016-04-21T08:16:01.951Z,34.24
2016-04-21T08:17:01.968Z,34.59
2016-04-21T08:18:01.971Z,35.04
2016-04-21T08:19:01.973Z,35.25
2016-04-21T08:20:01.993Z,35.52
2016-04-21T08:21:01.995Z,35.56
2016-04-21T08:22:01.998Z,35.49
2016-04-21T08:23:02.015Z,35.47
2016-04-21T08:24:02.017Z,35.42
2016-04-21T08:25:02.006Z,35.22
2016-04-21T08:26:02.023Z,35.37
2016-04-21T08:27:02.042Z,35.94
2016-04-21T08:28:02.028Z,36.53
2016-04-21T08:29:02.048Z,36.87
2016-04-21T08:30:01.316Z,37.21
2016-04-21T08:31:02.068Z,37.8
2016-04-21T08:32:02.478Z,38.35
2016-04-21T08:33:02.105Z,38.57
2016-04-21T08:34:02.483Z,38.76
2016-04-21T08:35:02.095Z,38.69
2016-04-21T08:36:02.113Z,38.07
2016-04-21T08:37:02.116Z,37.53
2016-04-21T08:38:02.102Z,36.72
2016-04-21T08:39:02.121Z,36.18
2016-04-21T08:40:02.124Z,36.08
2016-04-21T08:41:02.126Z,35.75
2016-04-21T08:42:02.146Z,35.57
2016-04-21T08:43:02.148Z,35.44
2016-04-21T08:44:02.166Z,35.63
2016-04-21T08:45:02.169Z,35.75
2016-04-21T08:46:02.171Z,35.91
2016-04-21T08:47:02.189Z,36.36
2016-04-21T08:48:02.177Z,36.82
2016-04-21T08:49:02.196Z,37.44
2016-04-21T08:50:02.198Z,37.98
2016-04-21T08:51:02.200Z,38.38
2016-04-21T08:52:02.203Z,38.82
2016-04-21T08:53:02.211Z,39.03
2016-04-21T08:54:02.229Z,39.45
2016-04-21T08:55:02.231Z,39.51
2016-04-21T08:56:02.234Z,39.97
2016-04-21T08:57:02.236Z,40.17
2016-04-21T08:58:02.255Z,40.42
2016-04-21T08:59:02.258Z,40.64
2016-04-21T09:00:02.260Z,41.17
2016-04-21T09:01:02.279Z,41.44
2016-04-21T09:02:02.267Z,41.68
2016-04-21T09:03:02.285Z,41.95
2016-04-21T09:04:02.287Z,42
2016-04-21T09:05:02.274Z,42.28
2016-04-21T09:06:02.293Z,42.61
2016-04-21T09:07:02.296Z,42.82
2016-04-21T09:08:02.313Z,42.81
2016-04-21T09:09:02.301Z,42.65
2016-04-21T09:10:02.319Z,42.71
2016-04-21T09:11:02.321Z,42.93
2016-04-21T09:12:02.340Z,42.94
2016-04-21T09:13:02.357Z,43.02
2016-04-21T09:14:02.330Z,43.16
2016-04-21T09:15:02.349Z,42.93
2016-04-21T09:16:02.366Z,41.99
2016-04-21T09:17:02.368Z,40.98
2016-04-21T09:18:02.387Z,40.29
2016-04-21T09:19:02.373Z,39.89
2016-04-21T09:20:02.377Z,39.89
2016-04-21T09:21:02.411Z,39.76
2016-04-21T09:22:02.398Z,39.75
2016-04-21T09:23:02.384Z,39.78
2016-04-21T09:24:02.403Z,39.95
2016-04-21T09:25:02.406Z,40.24
2016-04-21T09:26:02.409Z,40.58
2016-04-21T09:27:02.412Z,40.62
2016-04-21T09:28:02.415Z,40.71
2016-04-21T09:29:02.417Z,40.4
2016-04-21T09:30:02.420Z,39.73
2016-04-21T09:31:02.422Z,38.92
2016-04-21T09:32:02.425Z,38.02
2016-04-21T09:33:02.458Z,37.09
2016-04-21T09:34:02.446Z,35.87
2016-04-21T09:35:02.449Z,34.81
2016-04-21T09:36:02.467Z,33.69
2016-04-21T09:37:02.454Z,32.76
2016-04-21T09:38:02.472Z,31.79
2016-04-21T09:39:02.474Z,30.83
2016-04-21T09:40:02.478Z,29.68
2016-04-21T09:41:02.480Z,28.75
2016-04-21T09:42:02.499Z,27.91
2016-04-21T09:43:02.485Z,27.03
2016-04-21T09:44:02.504Z,26.29
2016-04-21T09:45:02.523Z,25.66
2016-04-21T09:46:02.509Z,25.24
2016-04-21T09:47:02.512Z,24.77
2016-04-21T09:48:02.531Z,24.48
2016-04-21T09:49:02.548Z,23.99
2016-04-21T09:50:02.537Z,23.54
2016-04-21T09:51:02.554Z,23.17
2016-04-21T09:52:02.541Z,23.06
2016-04-21T09:53:02.545Z,22.86
2016-04-21T09:54:02.390Z,22.78
2016-04-21T09:55:02.565Z,22.51
2016-04-21T09:56:02.553Z,22.28
2016-04-21T09:57:02.555Z,22.07
2016-04-21T09:58:02.573Z,21.92
2016-04-21T09:59:02.560Z,21.77
2016-04-21T10:00:02.564Z,21.69
2016-04-21T10:01:02.566Z,21.53
2016-04-21T10:02:02.584Z,21.17
2016-04-21T10:03:02.587Z,21.03
2016-04-21T10:04:02.574Z,20.73
2016-04-21T10:05:02.591Z,20.67
2016-04-21T10:06:02.594Z,20.55
2016-04-21T10:07:02.597Z,20.6
2016-04-21T10:08:02.600Z,20.55
2016-04-21T10:09:02.618Z,20.52
2016-04-21T10:10:02.605Z,20.56
2016-04-21T10:11:02.656Z,20.66
2016-04-21T10:12:02.703Z,20.64
2016-04-21T10:13:24.718Z,20.63
2016-04-21T10:14:02.796Z,20.68
2016-04-21T10:15:02.843Z,20.58
2016-04-21T10:16:02.869Z,20.64
2016-04-21T10:17:02.888Z,20.55
2016-04-21T10:18:02.906Z,20.42
2016-04-21T10:19:02.940Z,20.49
2016-04-21T10:20:02.944Z,20.33
2016-04-21T10:21:02.954Z,20.22
2016-04-21T10:22:02.993Z,20.21
2016-04-21T10:23:02.987Z,20.19
2016-04-21T10:24:02.995Z,20.18
2016-04-21T10:25:03.003Z,20.11
2016-04-21T10:26:02.994Z,19.97
2016-04-21T10:27:02.998Z,20
2016-04-21T10:28:03.018Z,20
2016-04-21T10:29:03.023Z,20.02
2016-04-21T10:30:03.044Z,19.99
2016-04-21T10:31:03.032Z,19.93
2016-04-21T10:32:03.051Z,19.85
2016-04-21T10:33:03.054Z,19.85
2016-04-21T10:34:03.041Z,19.92
2016-04-21T10:35:03.045Z,19.84
2016-04-21T10:36:03.048Z,19.81
2016-04-21T10:37:03.067Z,19.71
2016-04-21T10:38:03.071Z,19.71
2016-04-21T10:39:03.073Z,19.82
2016-04-21T10:40:03.076Z,19.78
2016-04-21T10:41:03.079Z,19.77
2016-04-21T10:42:03.082Z,19.82
2016-04-21T10:43:03.085Z,19.96
2016-04-21T10:44:03.087Z,19.99
2016-04-21T10:45:03.090Z,20
2016-04-21T10:46:03.109Z,20
2016-04-21T10:47:03.095Z,20.08
2016-04-21T10:48:03.099Z,20.11
2016-04-21T10:49:03.117Z,20.15
2016-04-21T10:50:03.104Z,20.15
2016-04-21T10:51:03.107Z,20.19
2016-04-21T10:52:03.109Z,20.08
2016-04-21T10:53:03.112Z,20.11
2016-04-21T10:54:03.115Z,20.17
2016-04-21T10:55:03.133Z,20.11
2016-04-21T10:56:03.136Z,20.24
2016-04-21T10:57:03.138Z,20.26
2016-04-21T10:58:03.156Z,20.3
2016-04-21T10:59:03.144Z,20.36
2016-04-21T11:00:03.161Z,20.17
2016-04-21T11:01:03.149Z,20.24
2016-04-21T11:02:03.152Z,20.21
2016-04-21T11:03:03.155Z,20.19
2016-04-21T11:04:03.157Z,20.15
2016-04-21T11:05:03.003Z,20.17
2016-04-21T11:06:03.163Z,20.07
2016-04-21T11:07:03.181Z,20
2016-04-21T11:08:03.183Z,19.94
2016-04-21T11:09:03.171Z,19.97
2016-04-21T11:10:03.220Z,20.02
2016-04-21T11:11:03.191Z,19.97
2016-04-21T11:12:03.194Z,20.15
2016-04-21T11:13:03.213Z,20.04
2016-04-21T11:14:03.215Z,20.12
2016-04-21T11:15:03.202Z,20.12
2016-04-21T11:16:03.205Z,20.1
2016-04-21T11:17:03.208Z,20.08
2016-04-21T11:18:03.194Z,20.03
2016-04-21T11:19:03.244Z,19.99
2016-04-21T11:20:03.215Z,20.02
2016-04-21T11:21:03.218Z,19.97
2016-04-21T11:22:03.220Z,19.92
2016-04-21T11:23:03.224Z,19.84
2016-04-21T11:24:03.226Z,19.81
2016-04-21T11:25:03.229Z,19.82
2016-04-21T11:26:03.231Z,19.87
2016-04-21T11:27:03.250Z,19.82
2016-04-21T11:28:03.237Z,19.75
2016-04-21T11:29:03.256Z,19.75
2016-04-21T11:30:03.242Z,19.81
2016-04-21T11:31:03.261Z,19.7
2016-04-21T11:32:03.279Z,19.63
2016-04-21T11:33:03.250Z,19.59
2016-04-21T11:34:03.269Z,19.56
2016-04-21T11:35:03.256Z,19.6
2016-04-21T11:36:03.118Z,19.59
2016-04-21T11:37:03.277Z,19.72
2016-04-21T11:38:03.279Z,19.7
2016-04-21T11:39:03.266Z,19.62
2016-04-21T11:40:03.301Z,19.72
2016-04-21T11:41:03.304Z,19.85
2016-04-21T11:42:03.291Z,19.89
2016-04-21T11:43:03.293Z,19.99
2016-04-21T11:44:03.296Z,20.12
2016-04-21T11:45:03.299Z,20.27
2016-04-21T11:46:03.302Z,20.26
2016-04-21T11:47:03.304Z,20.32
2016-04-21T11:48:03.306Z,20.33
2016-04-21T11:49:03.309Z,20.42
2016-04-21T11:50:03.312Z,20.36
2016-04-21T11:51:03.315Z,20.44
2016-04-21T11:52:03.255Z,20.39
2016-04-21T11:53:03.570Z,20.44
2016-04-21T11:54:03.338Z,20.48
2016-04-21T11:55:03.216Z,20.44
2016-04-21T11:56:03.344Z,20.56
2016-04-21T11:57:03.331Z,20.66
2016-04-21T11:58:03.334Z,20.68
2016-04-21T11:59:03.352Z,20.78
2016-04-21T12:00:03.355Z,20.92
2016-04-21T12:01:03.341Z,21.03
2016-04-21T12:02:03.344Z,21.13
2016-04-21T12:03:03.347Z,21.29
2016-04-21T12:04:03.350Z,21.33
2016-04-21T12:05:03.369Z,21.51
2016-04-21T12:06:03.371Z,21.47
2016-04-21T12:07:03.374Z,21.63
2016-04-21T12:08:03.376Z,21.66
2016-04-21T12:09:03.363Z,21.59
2016-04-21T12:10:03.397Z,21.63
2016-04-21T12:11:03.384Z,21.8
2016-04-21T12:12:03.371Z,21.83
2016-04-21T12:13:03.374Z,21.77
2016-04-21T12:14:03.392Z,21.75
2016-04-21T12:15:03.395Z,21.59
2016-04-21T12:16:03.476Z,21.63
2016-04-21T12:17:03.401Z,21.74
2016-04-21T12:18:03.418Z,21.74
2016-04-21T12:19:03.249Z,21.77
2016-04-21T12:20:03.408Z,21.8
2016-04-21T12:21:03.426Z,21.78
2016-04-21T12:22:03.414Z,21.81
2016-04-21T12:23:03.416Z,21.84
2016-04-21T12:24:03.420Z,21.89
2016-04-21T12:25:03.297Z,21.92
2016-04-21T12:26:03.440Z,21.92
2016-04-21T12:27:03.442Z,21.99
2016-04-21T12:28:03.431Z,21.99
2016-04-21T12:29:03.433Z,22
2016-04-21T12:30:03.450Z,21.99
2016-04-21T12:31:03.438Z,21.94
2016-04-21T12:32:03.456Z,21.85
2016-04-21T12:33:03.334Z,21.84
2016-04-21T12:34:03.461Z,21.77
2016-04-21T12:35:03.449Z,21.77
2016-04-21T12:36:03.451Z,21.75
2016-04-21T12:37:03.485Z,21.75
2016-04-21T12:38:03.457Z,21.77
2016-04-21T12:39:03.475Z,21.8
2016-04-21T12:40:03.508Z,21.59
2016-04-21T12:41:03.480Z,21.63
2016-04-21T12:42:03.499Z,21.65
2016-04-21T12:43:03.517Z,21.69
2016-04-21T12:44:03.488Z,21.68
2016-04-21T12:45:03.476Z,21.62
2016-04-21T12:46:03.493Z,21.66
2016-04-21T12:47:03.512Z,21.74
2016-04-21T12:48:03.499Z,21.69
2016-04-21T12:49:03.501Z,21.63
2016-04-21T12:50:03.505Z,21.53
2016-04-21T12:51:03.507Z,21.45
2016-04-21T12:52:03.510Z,21.51
2016-04-21T12:53:03.513Z,21.47
2016-04-21T12:54:03.515Z,21.4
2016-04-21T12:55:03.518Z,21.35
2016-04-21T12:56:03.520Z,21.35
2016-04-21T12:57:03.523Z,21.4
2016-04-21T12:58:03.526Z,21.35
2016-04-21T12:59:03.529Z,21.3
2016-04-21T13:00:03.532Z,21.25
2016-04-21T13:01:03.534Z,21.28
2016-04-21T13:02:03.537Z,21.23
2016-04-21T13:03:03.556Z,21.26
2016-04-21T13:04:03.558Z,21.23